createdAt,value
2018-12-20T00:01:17.796Z,95514.42
2018-12-20T00:03:46.075Z,95513.34
2018-12-20T00:06:14.358Z,95516.34
2018-12-20T00:08:42.820Z,95519.35
2018-12-20T00:11:11.111Z,95516.48
2018-12-20T00:13:39.395Z,95516.76
2018-12-20T00:16:07.756Z,95515.58
2018-12-20T00:18:36.499Z,95513.25
2018-12-20T00:21:04.783Z,95515.67
2018-12-20T00:23:33.078Z,95519.50
2018-12-20T00:26:01.507Z,95519.37
2018-12-20T00:28:29.861Z,95519.69
2018-12-20T00:30:58.246Z,95514.39
2018-12-20T00:33:26.835Z,95511.02
2018-12-20T00:35:55.366Z,95510.38
2018-12-20T00:38:23.688Z,95519.86
2018-12-20T00:40:52.047Z,95515.62
2018-12-20T00:43:20.382Z,95523.23
2018-12-20T00:45:48.831Z,95524.42
2018-12-20T00:48:17.759Z,95524.18
2018-12-20T00:50:46.238Z,95533.09
2018-12-20T00:53:14.772Z,95532.67
2018-12-20T00:55:43.349Z,95542.66
2018-12-20T00:58:11.864Z,95539.89
2018-12-20T01:00:40.227Z,95544.16
2018-12-20T01:03:08.532Z,95545.48
2018-12-20T01:05:36.982Z,95547.09
2018-12-20T01:08:05.339Z,95557.94
2018-12-20T01:10:34.213Z,95557.06
2018-12-20T01:13:02.489Z,95556.28
2018-12-20T01:15:30.920Z,95557.37
2018-12-20T01:17:59.811Z,95554.33
2018-12-20T01:20:28.285Z,95563.27
2018-12-20T01:22:56.637Z,95560.39
2018-12-20T01:25:24.959Z,95564.21
2018-12-20T01:27:53.143Z,95573.37
2018-12-20T01:30:21.547Z,95566.58
2018-12-20T01:32:49.986Z,95572.03
2018-12-20T01:35:18.260Z,95573.70
2018-12-20T01:37:46.540Z,95572.00
2018-12-20T01:40:14.790Z,95571.50
2018-12-20T01:42:43.100Z,95570.70
2018-12-20T01:45:11.354Z,95570.11
2018-12-20T01:47:39.640Z,95571.02
2018-12-20T01:50:08.750Z,95567.88
2018-12-20T01:52:37.076Z,95571.43
2018-12-20T01:55:05.850Z,95571.30
2018-12-20T01:57:34.454Z,95567.59
2018-12-20T02:00:04.498Z,95568.19
2018-12-20T02:02:32.799Z,95572.63
2018-12-20T02:05:01.127Z,95571.78
2018-12-20T02:07:29.527Z,95564.48
2018-12-20T02:09:57.818Z,95565.77
2018-12-20T02:12:26.091Z,95565.83
2018-12-20T02:15:01.439Z,95570.39
2018-12-20T02:17:24.528Z,95568.79
2018-12-20T02:19:52.895Z,95574.83
2018-12-20T02:22:21.305Z,95563.13
2018-12-20T02:24:49.530Z,95559.09
2018-12-20T02:27:17.909Z,95556.83
2018-12-20T02:29:46.387Z,95565.57
2018-12-20T02:32:14.732Z,95568.08
2018-12-20T02:34:43.050Z,95564.94
2018-12-20T02:37:11.360Z,95565.49
2018-12-20T02:39:39.772Z,95565.87
2018-12-20T02:42:08.390Z,95571.06
2018-12-20T02:44:36.930Z,95574.07
2018-12-20T02:47:05.407Z,95560.84
2018-12-20T02:49:33.848Z,95572.98
2018-12-20T02:52:02.152Z,95570.47
2018-12-20T02:54:30.543Z,95578.58
2018-12-20T02:56:58.980Z,95573.76
2018-12-20T02:59:27.361Z,95574.58
2018-12-20T03:01:56.085Z,95577.50
2018-12-20T03:04:24.329Z,95580.96
2018-12-20T03:06:52.547Z,95579.59
2018-12-20T03:09:21.083Z,95584.56
2018-12-20T03:11:49.363Z,95581.51
2018-12-20T03:14:17.781Z,95582.96
2018-12-20T03:16:46.284Z,95579.17
2018-12-20T03:19:14.594Z,95585.78
2018-12-20T03:21:42.983Z,95587.39
2018-12-20T03:24:11.297Z,95578.48
2018-12-20T03:26:39.773Z,95584.05
2018-12-20T03:29:08.149Z,95578.83
2018-12-20T03:31:36.542Z,95587.29
2018-12-20T03:34:04.944Z,95587.16
2018-12-20T03:36:33.347Z,95581.88
2018-12-20T03:39:01.781Z,95586.76
2018-12-20T03:41:30.558Z,95581.47
2018-12-20T03:43:58.955Z,95582.57
2018-12-20T03:46:27.398Z,95582.70
2018-12-20T03:48:55.769Z,95585.44
2018-12-20T03:51:24.105Z,95588.98
2018-12-20T03:53:52.400Z,95586.25
2018-12-20T03:56:20.655Z,95584.48
2018-12-20T03:58:48.903Z,95585.67
2018-12-20T04:01:17.204Z,95590.27
2018-12-20T04:03:45.519Z,95590.68
2018-12-20T04:06:13.790Z,95594.38
2018-12-20T04:08:42.255Z,95591.14
2018-12-20T04:11:10.543Z,95592.19
2018-12-20T04:13:39.030Z,95594.65
2018-12-20T04:16:07.474Z,95593.51
2018-12-20T04:18:35.862Z,95596.75
2018-12-20T04:21:04.130Z,95600.03
2018-12-20T04:23:32.620Z,95596.33
2018-12-20T04:26:00.926Z,95597.65
2018-12-20T04:28:29.458Z,95595.55
2018-12-20T04:30:57.826Z,95601.94
2018-12-20T04:33:26.194Z,95598.41
2018-12-20T04:35:54.708Z,95598.64
2018-12-20T04:38:23.706Z,95597.27
2018-12-20T04:40:52.071Z,95601.27
2018-12-20T04:43:21.239Z,95605.63
2018-12-20T04:45:49.501Z,95606.19
2018-12-20T04:48:17.741Z,95609.02
2018-12-20T04:50:46.786Z,95607.19
2018-12-20T04:53:15.170Z,95605.73
2018-12-20T04:55:43.524Z,95608.34
2018-12-20T04:58:11.993Z,95609.66
2018-12-20T05:00:40.785Z,95611.80
2018-12-20T05:03:09.159Z,95610.89
2018-12-20T05:05:37.487Z,95610.76
2018-12-20T05:08:06.019Z,95612.58
2018-12-20T05:10:34.323Z,95619.92
2018-12-20T05:13:02.539Z,95613.89
2018-12-20T05:15:30.802Z,95624.41
2018-12-20T05:17:59.297Z,95625.77
2018-12-20T05:20:27.903Z,95627.27
2018-12-20T05:22:56.211Z,95632.05
2018-12-20T05:25:24.627Z,95629.23
2018-12-20T05:27:52.994Z,95626.95
2018-12-20T05:30:21.211Z,95629.41
2018-12-20T05:32:49.763Z,95632.33
2018-12-20T05:35:18.111Z,95639.73
2018-12-20T05:37:46.414Z,95640.68
2018-12-20T05:40:14.704Z,95641.14
2018-12-20T05:42:43.107Z,95634.70
2018-12-20T05:45:11.322Z,95637.62
2018-12-20T05:47:39.639Z,95630.28
2018-12-20T05:50:08.028Z,95634.34
2018-12-20T05:52:36.419Z,95637.69
2018-12-20T05:55:04.798Z,95639.63
2018-12-20T05:57:33.074Z,95647.36
2018-12-20T06:00:01.531Z,95647.50
2018-12-20T06:02:29.942Z,95653.02
2018-12-20T06:04:58.441Z,95661.78
2018-12-20T06:07:26.796Z,95655.24
2018-12-20T06:09:55.032Z,95661.41
2018-12-20T06:12:23.266Z,95664.63
2018-12-20T06:14:51.477Z,95671.44
2018-12-20T06:17:19.875Z,95674.45
2018-12-20T06:19:48.281Z,95668.34
2018-12-20T06:22:16.584Z,95668.84
2018-12-20T06:24:44.787Z,95677.51
2018-12-20T06:27:13.097Z,95677.33
2018-12-20T06:29:41.384Z,95680.57
2018-12-20T06:32:09.623Z,95685.05
2018-12-20T06:34:37.871Z,95679.69
2018-12-20T06:37:06.103Z,95687.83
2018-12-20T06:39:34.324Z,95681.85
2018-12-20T06:42:02.633Z,95683.99
2018-12-20T06:44:30.852Z,95685.54
2018-12-20T06:46:59.051Z,95688.69
2018-12-20T06:49:27.305Z,95689.64
2018-12-20T06:51:56.023Z,95689.51
2018-12-20T06:54:24.364Z,95700.95
2018-12-20T06:56:52.580Z,95696.34
2018-12-20T06:59:20.858Z,95702.09
2018-12-20T07:01:49.071Z,95708.45
2018-12-20T07:04:17.291Z,95704.34
2018-12-20T07:06:45.687Z,95703.65
2018-12-20T07:09:13.915Z,95707.77
2018-12-20T07:11:42.263Z,95708.59
2018-12-20T07:14:10.670Z,95700.56
2018-12-20T07:16:38.964Z,95702.20
2018-12-20T07:19:07.194Z,95703.80
2018-12-20T07:21:35.448Z,95706.16
2018-12-20T07:24:03.748Z,95694.30
2018-12-20T07:26:31.962Z,95699.23
2018-12-20T07:29:00.188Z,95698.28
2018-12-20T07:31:28.447Z,95702.79
2018-12-20T07:33:57.054Z,95711.61
2018-12-20T07:36:25.302Z,95712.25
2018-12-20T07:38:53.575Z,95713.92
2018-12-20T07:41:21.780Z,95717.08
2018-12-20T07:43:50.001Z,95713.10
2018-12-20T07:46:18.331Z,95711.28
2018-12-20T07:48:46.551Z,95708.77
2018-12-20T07:51:14.828Z,95704.98
2018-12-20T07:53:43.056Z,95710.15
2018-12-20T07:56:11.315Z,95716.44
2018-12-20T07:58:39.543Z,95719.05
2018-12-20T08:01:07.751Z,95714.06
2018-12-20T08:03:35.961Z,95716.02
2018-12-20T08:06:04.221Z,95721.52
2018-12-20T08:08:32.436Z,95721.66
2018-12-20T08:11:00.646Z,95722.64
2018-12-20T08:13:29.076Z,95723.58
2018-12-20T08:15:57.430Z,95718.73
2018-12-20T08:18:25.667Z,95726.20
2018-12-20T08:20:53.878Z,95726.02
2018-12-20T08:23:22.083Z,95733.84
2018-12-20T08:25:50.305Z,95733.00
2018-12-20T08:28:18.581Z,95732.13
2018-12-20T08:30:46.850Z,95739.93
2018-12-20T08:33:15.248Z,95746.05
2018-12-20T08:35:44.066Z,95739.34
2018-12-20T08:38:12.428Z,95740.58
2018-12-20T08:40:40.795Z,95737.81
2018-12-20T08:43:09.344Z,95736.35
2018-12-20T08:45:37.651Z,95739.62
2018-12-20T08:48:05.954Z,95742.72
2018-12-20T08:50:34.202Z,95745.67
2018-12-20T08:53:02.599Z,95748.53
2018-12-20T08:55:30.859Z,95748.61
2018-12-20T08:57:59.267Z,95752.97
2018-12-20T09:00:27.506Z,95756.36
2018-12-20T09:02:55.809Z,95770.09
2018-12-20T09:05:24.063Z,95773.75
2018-12-20T09:07:52.282Z,95781.22
2018-12-20T09:10:20.503Z,95775.75
2018-12-20T09:12:48.790Z,95776.11
2018-12-20T09:15:17.073Z,95786.80
2018-12-20T09:17:45.435Z,95782.32
2018-12-20T09:20:13.722Z,95782.17
2018-12-20T09:22:41.996Z,95786.16
2018-12-20T09:25:10.211Z,95784.98
2018-12-20T09:27:38.451Z,95781.45
2018-12-20T09:30:07.851Z,95781.73
2018-12-20T09:32:36.162Z,95785.87
2018-12-20T09:35:05.021Z,95785.05
2018-12-20T09:37:33.287Z,95786.45
2018-12-20T09:40:01.596Z,95786.30
2018-12-20T09:42:29.781Z,95778.66
2018-12-20T09:44:58.052Z,95784.09
2018-12-20T09:47:31.767Z,95789.09
2018-12-20T09:50:00.025Z,95773.41
2018-12-20T09:52:28.308Z,95782.34
2018-12-20T09:54:56.559Z,95782.69
2018-12-20T09:57:24.837Z,95775.01
2018-12-20T09:59:53.061Z,95773.75
2018-12-20T10:02:21.286Z,95765.90
2018-12-20T10:04:49.621Z,95770.01
2018-12-20T10:07:17.871Z,95779.22
2018-12-20T10:09:46.213Z,95757.23
2018-12-20T10:12:14.490Z,95763.56
2018-12-20T10:14:42.742Z,95775.66
2018-12-20T10:17:10.943Z,95764.03
2018-12-20T10:19:39.149Z,95768.94
2018-12-20T10:22:07.370Z,95750.53
2018-12-20T10:24:35.589Z,95753.36
2018-12-20T10:27:03.882Z,95762.50
2018-12-20T10:29:32.117Z,95754.53
2018-12-20T10:32:00.506Z,95757.80
2018-12-20T10:34:28.707Z,95759.76
2018-12-20T10:36:56.942Z,95755.27
2018-12-20T10:39:25.326Z,95755.27
2018-12-20T10:41:53.699Z,95761.16
2018-12-20T10:44:21.976Z,95768.22
2018-12-20T10:46:50.273Z,95764.98
2018-12-20T10:49:18.532Z,95767.92
2018-12-20T10:51:46.812Z,95775.01
2018-12-20T10:54:15.079Z,95779.08
2018-12-20T10:56:43.354Z,95773.53
2018-12-20T10:59:11.558Z,95766.53
2018-12-20T11:01:45.407Z,95768.20
2018-12-20T11:07:34.151Z,95750.65
2018-12-20T11:10:08.090Z,95755.52
2018-12-20T11:12:41.735Z,95750.82
2018-12-20T11:15:10.053Z,95746.15
2018-12-20T11:17:38.380Z,95761.67
2018-12-20T11:20:07.267Z,95742.44
2018-12-20T11:22:35.547Z,95742.84
2018-12-20T11:25:04.745Z,95735.31
2018-12-20T11:27:33.114Z,95740.67
2018-12-20T11:30:01.402Z,95747.75
2018-12-20T11:32:29.772Z,95746.73
2018-12-20T11:34:58.048Z,95742.06
2018-12-20T11:37:26.251Z,95746.17
2018-12-20T11:39:59.517Z,95729.70
2018-12-20T11:42:24.695Z,95736.58
2018-12-20T11:44:53.003Z,95755.59
2018-12-20T11:47:27.286Z,95740.16
2018-12-20T11:50:08.222Z,95754.16
2018-12-20T11:52:42.343Z,95741.38
2018-12-20T11:55:06.667Z,95739.78
2018-12-20T11:57:34.971Z,95744.83
2018-12-20T12:00:06.271Z,95733.58
2018-12-20T12:02:34.499Z,95729.72
2018-12-20T12:05:02.703Z,95753.58
2018-12-20T12:07:30.997Z,95735.55
2018-12-20T12:09:59.315Z,95739.54
2018-12-20T12:12:27.524Z,95725.50
2018-12-20T12:14:55.820Z,95730.06
2018-12-20T12:17:24.151Z,95726.67
2018-12-20T12:19:52.606Z,95732.37
2018-12-20T12:22:21.145Z,95738.57
2018-12-20T12:24:49.517Z,95722.42
2018-12-20T12:27:17.711Z,95732.70
2018-12-20T12:29:46.037Z,95729.94
2018-12-20T12:32:14.308Z,95727.45
2018-12-20T12:34:42.596Z,95733.47
2018-12-20T12:37:10.883Z,95732.41
2018-12-20T12:39:39.079Z,95733.59
2018-12-20T12:42:07.333Z,95737.66
2018-12-20T12:44:35.730Z,95729.84
2018-12-20T12:47:05.956Z,95742.83
2018-12-20T12:49:34.315Z,95728.41
2018-12-20T12:52:02.532Z,95729.14
2018-12-20T12:54:30.740Z,95730.97
2018-12-20T12:56:58.967Z,95727.80
2018-12-20T12:59:27.209Z,95732.41
2018-12-20T13:01:55.437Z,95733.66
2018-12-20T13:04:23.745Z,95728.62
2018-12-20T13:06:51.985Z,95732.72
2018-12-20T13:09:20.289Z,95732.85
2018-12-20T13:11:48.663Z,95731.34
2018-12-20T13:14:16.894Z,95732.25
2018-12-20T13:16:45.141Z,95733.45
2018-12-20T13:19:13.352Z,95738.41
2018-12-20T13:21:41.571Z,95748.44
2018-12-20T13:24:09.788Z,95736.54
2018-12-20T13:26:38.236Z,95745.64
2018-12-20T13:29:06.526Z,95745.85
2018-12-20T13:31:35.926Z,95742.02
2018-12-20T13:34:04.228Z,95739.55
2018-12-20T13:36:32.442Z,95730.19
2018-12-20T13:39:00.667Z,95733.45
2018-12-20T13:41:28.938Z,95733.71
2018-12-20T13:43:57.170Z,95738.63
2018-12-20T13:46:25.386Z,95734.00
2018-12-20T13:48:53.612Z,95741.78
2018-12-20T13:51:21.827Z,95736.89
2018-12-20T13:53:50.079Z,95738.88
2018-12-20T13:56:18.319Z,95747.27
2018-12-20T13:58:46.571Z,95740.38
2018-12-20T14:01:14.884Z,95746.77
2018-12-20T14:03:43.212Z,95754.53
2018-12-20T14:06:11.554Z,95762.98
2018-12-20T14:08:39.888Z,95766.67
2018-12-20T14:11:08.319Z,95759.14
2018-12-20T14:13:36.684Z,95769.13
2018-12-20T14:16:05.489Z,95762.77
2018-12-20T14:18:33.850Z,95781.09
2018-12-20T14:21:02.072Z,95768.14
2018-12-20T14:23:30.396Z,95769.95
2018-12-20T14:25:58.693Z,95766.59
2018-12-20T14:28:27.016Z,95765.45
2018-12-20T14:30:55.283Z,95766.53
2018-12-20T14:33:23.737Z,95767.64
2018-12-20T14:35:52.003Z,95767.67
2018-12-20T14:38:20.315Z,95762.59
2018-12-20T14:40:48.527Z,95765.25
2018-12-20T14:43:16.782Z,95768.39
2018-12-20T14:45:44.989Z,95771.50
2018-12-20T14:48:15.182Z,95770.76
2018-12-20T14:50:43.380Z,95766.52
2018-12-20T14:53:11.680Z,95772.83
2018-12-20T14:55:39.907Z,95775.55
2018-12-20T14:58:08.126Z,95778.15
2018-12-20T15:00:36.419Z,95782.27
2018-12-20T15:03:04.635Z,95779.62
2018-12-20T15:05:32.845Z,95781.39
2018-12-20T15:08:01.096Z,95777.00
2018-12-20T15:10:29.303Z,95784.33
2018-12-20T15:12:57.515Z,95791.66
2018-12-20T15:15:25.740Z,95787.97
2018-12-20T15:17:53.939Z,95788.72
2018-12-20T15:20:22.192Z,95791.82
2018-12-20T15:22:50.412Z,95790.80
2018-12-20T15:25:18.664Z,95787.84
2018-12-20T15:27:47.034Z,95793.08
2018-12-20T15:30:15.313Z,95801.05
2018-12-20T15:32:43.610Z,95799.11
2018-12-20T15:35:11.832Z,95799.83
2018-12-20T15:37:40.045Z,95803.30
2018-12-20T15:40:08.878Z,95810.63
2018-12-20T15:42:37.290Z,95810.77
2018-12-20T15:45:07.305Z,95819.06
2018-12-20T15:47:35.522Z,95814.56
2018-12-20T15:50:06.535Z,95825.03
2018-12-20T15:52:34.746Z,95826.64
2018-12-20T15:55:03.560Z,95820.25
2018-12-20T15:57:31.888Z,95823.51
2018-12-20T16:00:00.175Z,95828.45
2018-12-20T16:02:28.427Z,95826.82
2018-12-20T16:04:56.679Z,95827.36
2018-12-20T16:07:25.083Z,95827.80
2018-12-20T16:09:53.605Z,95825.38
2018-12-20T16:12:21.871Z,95826.89
2018-12-20T16:14:50.113Z,95822.63
2018-12-20T16:17:18.323Z,95825.38
2018-12-20T16:19:46.663Z,95824.41
2018-12-20T16:22:14.876Z,95819.03
2018-12-20T16:24:43.121Z,95822.42
2018-12-20T16:27:11.496Z,95825.91
2018-12-20T16:29:39.745Z,95823.84
2018-12-20T16:32:08.063Z,95830.59
2018-12-20T16:34:36.302Z,95835.59
2018-12-20T16:37:04.534Z,95832.13
2018-12-20T16:39:32.783Z,95834.86
2018-12-20T16:42:01.007Z,95828.61
2018-12-20T16:44:29.279Z,95833.77
2018-12-20T16:46:57.507Z,95836.22
2018-12-20T16:49:25.796Z,95838.64
2018-12-20T16:51:54.128Z,95835.09
2018-12-20T16:54:22.375Z,95840.20
2018-12-20T16:56:50.623Z,95840.56
2018-12-20T16:59:18.830Z,95843.22
2018-12-20T17:01:47.048Z,95836.94
2018-12-20T17:04:15.330Z,95839.08
2018-12-20T17:06:43.636Z,95843.49
2018-12-20T17:09:11.909Z,95841.22
2018-12-20T17:11:40.176Z,95847.05
2018-12-20T17:14:08.406Z,95843.95
2018-12-20T17:16:36.668Z,95842.12
2018-12-20T17:19:05.131Z,95841.97
2018-12-20T17:21:33.389Z,95838.48
2018-12-20T17:24:01.658Z,95842.70
2018-12-20T17:26:29.965Z,95843.22
2018-12-20T17:28:58.193Z,95836.30
2018-12-20T17:31:26.445Z,95838.72
2018-12-20T17:33:54.650Z,95843.67
2018-12-20T17:36:22.908Z,95844.69
2018-12-20T17:38:51.211Z,95844.48
2018-12-20T17:41:19.551Z,95845.20
2018-12-20T17:43:47.772Z,95841.22
2018-12-20T17:46:16.064Z,95842.62
2018-12-20T17:48:44.362Z,95850.98
2018-12-20T17:51:12.647Z,95852.96
2018-12-20T17:53:40.894Z,95851.77
2018-12-20T17:56:09.144Z,95859.06
2018-12-20T17:58:37.365Z,95859.66
2018-12-20T18:01:05.802Z,95870.08
2018-12-20T18:03:34.070Z,95872.05
2018-12-20T18:06:02.346Z,95873.95
2018-12-20T18:08:30.618Z,95869.15
2018-12-20T18:10:58.999Z,95869.73
2018-12-20T18:13:27.331Z,95876.97
2018-12-20T18:15:55.642Z,95881.80
2018-12-20T18:18:23.941Z,95882.08
2018-12-20T18:20:52.296Z,95885.13
2018-12-20T18:23:20.634Z,95886.95
2018-12-20T18:25:48.880Z,95890.92
2018-12-20T18:28:17.109Z,95895.45
2018-12-20T18:30:45.417Z,95895.72
2018-12-20T18:33:13.727Z,95894.55
2018-12-20T18:35:41.989Z,95898.30
2018-12-20T18:38:10.206Z,95908.27
2018-12-20T18:40:38.668Z,95901.61
2018-12-20T18:43:06.889Z,95904.81
2018-12-20T18:45:35.108Z,95898.30
2018-12-20T18:48:03.358Z,95894.55
2018-12-20T18:50:31.584Z,95895.89
2018-12-20T18:52:59.851Z,95883.79
2018-12-20T18:55:28.080Z,95890.66
2018-12-20T18:57:56.344Z,95885.63
2018-12-20T19:00:24.563Z,95899.21
2018-12-20T19:02:52.803Z,95898.03
2018-12-20T19:05:21.012Z,95907.09
2018-12-20T19:07:49.451Z,95898.60
2018-12-20T19:10:17.695Z,95911.29
2018-12-20T19:12:46.052Z,95901.03
2018-12-20T19:15:15.202Z,95902.38
2018-12-20T19:17:43.482Z,95896.53
2018-12-20T19:20:16.128Z,95904.88
2018-12-20T19:22:42.011Z,95896.02
2018-12-20T19:25:10.205Z,95905.48
2018-12-20T19:27:38.504Z,95896.61
2018-12-20T19:30:08.850Z,95896.33
2018-12-20T19:32:37.228Z,95902.82
2018-12-20T19:35:06.257Z,95909.00
2018-12-20T19:37:34.525Z,95912.94
2018-12-20T19:40:04.003Z,95905.60
2018-12-20T19:42:32.251Z,95903.09
2018-12-20T19:45:01.573Z,95910.33
2018-12-20T19:47:29.826Z,95911.61
2018-12-20T19:50:04.868Z,95917.04
2018-12-20T19:52:28.276Z,95914.11
2018-12-20T19:54:57.798Z,95920.23
2018-12-20T19:57:26.170Z,95903.99
2018-12-20T19:59:54.410Z,95911.09
2018-12-20T20:02:22.623Z,95914.77
2018-12-20T20:04:50.904Z,95918.16
2018-12-20T20:07:19.184Z,95915.81
2018-12-20T20:09:47.392Z,95918.00
2018-12-20T20:12:15.803Z,95898.11
2018-12-20T20:14:44.066Z,95914.60
2018-12-20T20:17:12.496Z,95907.16
2018-12-20T20:19:40.827Z,95915.94
2018-12-20T20:22:09.259Z,95916.24
2018-12-20T20:24:37.571Z,95922.87
2018-12-20T20:27:05.924Z,95918.97
2018-12-20T20:29:34.199Z,95926.70
2018-12-20T20:32:02.460Z,95924.13
2018-12-20T20:34:30.724Z,95925.30
2018-12-20T20:36:59.023Z,95925.18
2018-12-20T20:39:27.394Z,95931.36
2018-12-20T20:41:55.714Z,95929.00
2018-12-20T20:44:24.220Z,95928.18
2018-12-20T20:46:52.650Z,95932.23
2018-12-20T20:49:21.003Z,95931.29
2018-12-20T20:51:49.346Z,95945.36
2018-12-20T20:54:17.578Z,95942.77
2018-12-20T20:56:45.920Z,95944.38
2018-12-20T20:59:14.145Z,95948.22
2018-12-20T21:01:42.444Z,95940.12
2018-12-20T21:04:10.728Z,95945.68
2018-12-20T21:06:46.856Z,95944.35
2018-12-20T21:09:09.430Z,95945.73
2018-12-20T21:11:37.648Z,95952.20
2018-12-20T21:14:05.971Z,95952.17
2018-12-20T21:16:35.082Z,95961.91
2018-12-20T21:19:03.451Z,95953.92
2018-12-20T21:21:31.826Z,95952.17
2018-12-20T21:24:00.346Z,95957.31
2018-12-20T21:26:28.556Z,95947.43
2018-12-20T21:28:56.880Z,95951.13
2018-12-20T21:31:25.110Z,95951.72
2018-12-20T21:33:53.438Z,95959.05
2018-12-20T21:36:21.652Z,95958.61
2018-12-20T21:38:49.865Z,95953.22
2018-12-20T21:41:18.133Z,95950.98
2018-12-20T21:43:46.342Z,95949.20
2018-12-20T21:46:14.651Z,95944.91
2018-12-20T21:48:43.270Z,95947.63
2018-12-20T21:51:11.584Z,95950.34
2018-12-20T21:53:40.075Z,95954.55
2018-12-20T21:56:08.431Z,95956.84
2018-12-20T21:58:36.849Z,95961.23
2018-12-20T22:01:05.226Z,95965.59
2018-12-20T22:03:33.459Z,95972.30
2018-12-20T22:06:01.727Z,95972.50
2018-12-20T22:08:30.056Z,95977.39
2018-12-20T22:10:58.318Z,95972.81
2018-12-20T22:13:26.534Z,95984.89
2018-12-20T22:15:54.748Z,95986.12
2018-12-20T22:18:22.996Z,95980.19
2018-12-20T22:20:51.295Z,95979.22
2018-12-20T22:23:19.524Z,95985.72
2018-12-20T22:25:47.754Z,95988.77
2018-12-20T22:28:16.024Z,95987.50
2018-12-20T22:30:44.274Z,95983.88
2018-12-20T22:33:12.512Z,95978.41
2018-12-20T22:35:40.743Z,95981.23
2018-12-20T22:38:08.983Z,95984.39
2018-12-20T22:40:37.221Z,95980.41
2018-12-20T22:43:05.506Z,95987.73
2018-12-20T22:45:33.740Z,95970.78
2018-12-20T22:48:02.226Z,95999.98
2018-12-20T22:50:30.571Z,95998.34
2018-12-20T22:52:58.876Z,95990.64
2018-12-20T22:55:28.067Z,95989.50
2018-12-20T22:57:56.460Z,95978.47
2018-12-20T23:00:24.706Z,95984.34
2018-12-20T23:02:53.093Z,95989.84
2018-12-20T23:05:21.300Z,95986.95
2018-12-20T23:07:49.596Z,95981.37
2018-12-20T23:10:18.131Z,95980.91
2018-12-20T23:12:46.421Z,95973.83
2018-12-20T23:15:14.635Z,95967.56
2018-12-20T23:17:42.845Z,95975.75
2018-12-20T23:20:11.053Z,95974.78
2018-12-20T23:22:39.318Z,95973.23
2018-12-20T23:25:07.680Z,95973.23
2018-12-20T23:27:36.083Z,95967.56
2018-12-20T23:30:05.971Z,95967.02
2018-12-20T23:32:34.260Z,95962.58
2018-12-20T23:35:02.555Z,95958.84
2018-12-20T23:37:30.781Z,95965.78
2018-12-20T23:39:58.994Z,95960.02
2018-12-20T23:42:27.379Z,95966.52
2018-12-20T23:44:55.606Z,95967.84
2018-12-20T23:47:23.939Z,95968.39
2018-12-20T23:49:52.163Z,95965.74
2018-12-20T23:52:20.477Z,95958.38
2018-12-20T23:54:48.832Z,95967.53
2018-12-20T23:57:17.099Z,95973.15
2018-12-20T23:59:45.308Z,95968.48
